createdAt,value
2017-04-09T00:10:08.566Z,0
2017-04-09T00:20:19.818Z,0
2017-04-09T00:30:31.076Z,0
2017-04-09T00:40:42.345Z,0
2017-04-09T00:50:53.596Z,0
2017-04-09T01:01:04.862Z,0
2017-04-09T01:11:16.154Z,0
2017-04-09T01:21:27.441Z,0
2017-04-09T01:31:38.758Z,0
2017-04-09T01:41:50.171Z,0
2017-04-09T01:52:01.631Z,0
2017-04-09T02:02:13.129Z,0
2017-04-09T02:12:24.636Z,0
2017-04-09T02:22:36.167Z,0
2017-04-09T02:32:47.904Z,0
2017-04-09T02:42:59.473Z,0
2017-04-09T02:53:11.147Z,0
2017-04-09T03:03:23.060Z,0
2017-04-09T03:13:34.613Z,0
2017-04-09T03:23:46.338Z,0
2017-04-09T03:33:58.156Z,0
2017-04-09T03:44:09.834Z,0
2017-04-09T03:54:21.544Z,0
2017-04-09T04:04:33.328Z,0
2017-04-09T04:14:45.127Z,0
2017-04-09T04:24:56.908Z,0
2017-04-09T04:35:08.611Z,0
2017-04-09T04:45:20.362Z,15
2017-04-09T04:55:32.017Z,30
2017-04-09T05:05:43.671Z,60
2017-04-09T05:15:55.219Z,95
2017-04-09T05:26:06.659Z,130
2017-04-09T05:36:18.016Z,175
2017-04-09T05:46:29.199Z,215
2017-04-09T05:56:40.222Z,280
2017-04-09T06:06:51.113Z,345
2017-04-09T06:17:01.854Z,435
2017-04-09T06:27:12.471Z,565
2017-04-09T06:37:22.891Z,730
2017-04-09T06:47:33.112Z,880
2017-04-09T06:57:43.094Z,980
2017-04-09T07:07:52.990Z,1130
2017-04-09T07:18:02.620Z,1255
2017-04-09T07:28:12.097Z,1375
2017-04-09T07:38:21.445Z,1510
2017-04-09T07:48:30.755Z,1640
2017-04-09T07:58:39.870Z,1865
2017-04-09T08:08:48.747Z,1885
2017-04-09T08:18:57.515Z,2025
2017-04-09T08:29:06.199Z,2150
2017-04-09T08:39:14.891Z,2315
2017-04-09T08:49:23.522Z,2425
2017-04-09T08:59:32.116Z,2545
2017-04-09T09:09:40.632Z,2625
2017-04-09T09:19:48.989Z,2740
2017-04-09T09:29:57.250Z,2795
2017-04-09T09:40:05.410Z,2795
2017-04-09T09:50:13.501Z,2930
2017-04-09T10:00:21.638Z,3040
2017-04-09T10:10:29.556Z,3185
2017-04-09T10:20:37.528Z,3090
2017-04-09T10:30:45.459Z,3330
2017-04-09T10:40:53.265Z,3335
2017-04-09T10:51:01.083Z,3380
2017-04-09T11:01:08.833Z,3460
2017-04-09T11:11:16.667Z,3455
2017-04-09T11:21:24.546Z,3420
2017-04-09T11:31:32.341Z,3355
2017-04-09T11:41:40.083Z,3405
2017-04-09T11:51:47.709Z,3350
2017-04-09T12:01:55.299Z,3165
2017-04-09T12:12:02.870Z,3165
2017-04-09T12:22:10.372Z,3230
2017-04-09T12:32:17.771Z,3105
2017-04-09T12:42:25.156Z,2875
2017-04-09T12:52:32.463Z,2790
2017-04-09T13:02:39.779Z,2645
2017-04-09T13:12:47.156Z,2795
2017-04-09T13:22:54.510Z,2685
2017-04-09T13:33:01.822Z,2600
2017-04-09T13:43:09.126Z,2630
2017-04-09T13:53:16.415Z,2435
2017-04-09T14:03:23.767Z,2360
2017-04-09T14:13:31.077Z,2190
2017-04-09T14:23:38.316Z,2075
2017-04-09T14:33:45.539Z,1995
2017-04-09T14:43:52.678Z,1980
2017-04-09T14:53:59.878Z,1970
2017-04-09T15:04:07.106Z,1710
2017-04-09T15:14:14.382Z,1545
2017-04-09T15:24:21.652Z,1395
2017-04-09T15:34:28.858Z,1290
2017-04-09T15:44:36.099Z,1165
2017-04-09T15:54:43.493Z,515
2017-04-09T16:04:51.161Z,470
2017-04-09T16:14:59.167Z,435
2017-04-09T16:25:07.421Z,405
2017-04-09T16:35:15.837Z,410
2017-04-09T16:45:24.125Z,380
2017-04-09T16:55:32.292Z,340
2017-04-09T17:05:40.498Z,260
2017-04-09T17:15:48.982Z,215
2017-04-09T17:25:57.610Z,180
2017-04-09T17:36:06.329Z,135
2017-04-09T17:46:15.114Z,105
2017-04-09T17:56:23.983Z,65
2017-04-09T18:06:32.997Z,35
2017-04-09T18:16:42.153Z,15
2017-04-09T18:26:51.429Z,5
2017-04-09T18:37:00.809Z,0
2017-04-09T18:47:10.205Z,0
2017-04-09T18:57:19.600Z,0
2017-04-09T19:07:28.956Z,0
2017-04-09T19:17:38.326Z,0
2017-04-09T19:27:47.729Z,0
2017-04-09T19:37:57.168Z,0
2017-04-09T19:48:06.683Z,0
2017-04-09T19:58:16.156Z,0
2017-04-09T20:08:25.662Z,0
2017-04-09T20:18:35.152Z,0
2017-04-09T20:28:44.687Z,0
2017-04-09T20:38:54.234Z,0
2017-04-09T20:49:03.792Z,0
2017-04-09T20:59:13.417Z,0
2017-04-09T21:09:23.093Z,0
2017-04-09T21:19:32.794Z,0
2017-04-09T21:29:42.486Z,0
2017-04-09T21:39:52.238Z,0
2017-04-09T21:50:01.973Z,0
2017-04-09T22:00:11.748Z,0
2017-04-09T22:10:21.554Z,0
2017-04-09T22:20:31.350Z,0
2017-04-09T22:30:41.144Z,0
2017-04-09T22:40:50.957Z,0
2017-04-09T22:51:00.776Z,0
2017-04-09T23:01:10.601Z,0
2017-04-09T23:11:20.468Z,0
2017-04-09T23:21:30.338Z,0
2017-04-09T23:31:40.208Z,0
2017-04-09T23:41:50.118Z,0
2017-04-09T23:52:00.103Z,0
